sensor_id;sensor_type;location;lat;lon;timestamp;pressure;altitude;pressure_sealevel;temperature;humidity
21728;BME280;11026;50.560;17.852;2023-05-10T00:01:30;99684.56;;;9.60;58.95
21728;BME280;11026;50.560;17.852;2023-05-10T00:03:57;99683.78;;;9.58;59.26
21728;BME280;11026;50.560;17.852;2023-05-10T00:06:25;99677.09;;;9.48;59.38
21728;BME280;11026;50.560;17.852;2023-05-10T00:08:52;99672.66;;;9.49;59.59
21728;BME280;11026;50.560;17.852;2023-05-10T00:11:20;99672.91;;;9.43;59.90
21728;BME280;11026;50.560;17.852;2023-05-10T00:13:49;99672.03;;;9.42;60.01
21728;BME280;11026;50.560;17.852;2023-05-10T00:16:16;99676.53;;;9.40;60.10
21728;BME280;11026;50.560;17.852;2023-05-10T00:18:46;99675.69;;;9.38;60.31
21728;BME280;11026;50.560;17.852;2023-05-10T00:21:19;99675.88;;;9.33;60.36
21728;BME280;11026;50.560;17.852;2023-05-10T00:23:46;99671.69;;;9.28;60.52
21728;BME280;11026;50.560;17.852;2023-05-10T00:26:14;99677.94;;;9.25;60.83
21728;BME280;11026;50.560;17.852;2023-05-10T00:28:42;99670.34;;;9.16;60.97
21728;BME280;11026;50.560;17.852;2023-05-10T00:31:09;99671.09;;;9.20;60.97
21728;BME280;11026;50.560;17.852;2023-05-10T00:33:37;99665.44;;;9.05;61.29
21728;BME280;11026;50.560;17.852;2023-05-10T00:36:04;99671.59;;;9.06;61.30
21728;BME280;11026;50.560;17.852;2023-05-10T00:38:36;99664.66;;;9.03;61.53
21728;BME280;11026;50.560;17.852;2023-05-10T00:41:04;99666.38;;;9.04;61.45
21728;BME280;11026;50.560;17.852;2023-05-10T00:43:31;99665.44;;;9.05;61.74
21728;BME280;11026;50.560;17.852;2023-05-10T00:45:59;99662.28;;;8.96;62.07
21728;BME280;11026;50.560;17.852;2023-05-10T00:48:28;99659.06;;;8.88;62.18
21728;BME280;11026;50.560;17.852;2023-05-10T00:50:56;99657.97;;;8.93;62.25
21728;BME280;11026;50.560;17.852;2023-05-10T00:53:24;99652.81;;;8.90;62.44
21728;BME280;11026;50.560;17.852;2023-05-10T00:55:51;99661.75;;;8.86;62.42
21728;BME280;11026;50.560;17.852;2023-05-10T00:58:20;99663.59;;;8.84;62.73
21728;BME280;11026;50.560;17.852;2023-05-10T01:00:47;99657.47;;;8.82;62.66
21728;BME280;11026;50.560;17.852;2023-05-10T01:03:17;99654.09;;;8.78;62.99
21728;BME280;11026;50.560;17.852;2023-05-10T01:05:45;99656.88;;;8.74;62.98
21728;BME280;11026;50.560;17.852;2023-05-10T01:08:12;99646.56;;;8.68;63.22
21728;BME280;11026;50.560;17.852;2023-05-10T01:10:42;99644.06;;;8.63;63.71
21728;BME280;11026;50.560;17.852;2023-05-10T01:13:10;99647.53;;;8.65;63.76
21728;BME280;11026;50.560;17.852;2023-05-10T01:15:38;99655.78;;;8.54;63.98
21728;BME280;11026;50.560;17.852;2023-05-10T01:18:08;99641.72;;;8.55;64.13
21728;BME280;11026;50.560;17.852;2023-05-10T01:20:40;99646.88;;;8.58;64.09
21728;BME280;11026;50.560;17.852;2023-05-10T01:23:43;99648.91;;;8.50;64.47
21728;BME280;11026;50.560;17.852;2023-05-10T01:29:04;99643.84;;;8.44;64.99
21728;BME280;11026;50.560;17.852;2023-05-10T01:32:03;99648.59;;;8.31;65.54
21728;BME280;11026;50.560;17.852;2023-05-10T01:37:16;99639.97;;;8.28;65.52
21728;BME280;11026;50.560;17.852;2023-05-10T01:39:58;99640.09;;;8.23;65.86
21728;BME280;11026;50.560;17.852;2023-05-10T01:42:31;99638.47;;;8.19;65.88
21728;BME280;11026;50.560;17.852;2023-05-10T01:48:09;99637.69;;;8.17;65.87
21728;BME280;11026;50.560;17.852;2023-05-10T01:50:43;99641.34;;;8.11;65.92
21728;BME280;11026;50.560;17.852;2023-05-10T01:53:12;99636.91;;;8.13;65.62
21728;BME280;11026;50.560;17.852;2023-05-10T01:55:52;99640.34;;;8.16;65.71
21728;BME280;11026;50.560;17.852;2023-05-10T01:58:29;99643.28;;;8.06;65.92
21728;BME280;11026;50.560;17.852;2023-05-10T02:01:00;99640.63;;;8.08;65.94
21728;BME280;11026;50.560;17.852;2023-05-10T02:03:31;99650.88;;;8.16;65.72
21728;BME280;11026;50.560;17.852;2023-05-10T02:05:59;99643.44;;;8.02;65.99
21728;BME280;11026;50.560;17.852;2023-05-10T02:08:27;99640.56;;;8.09;65.85
21728;BME280;11026;50.560;17.852;2023-05-10T02:10:56;99636.28;;;8.05;66.13
21728;BME280;11026;50.560;17.852;2023-05-10T02:13:26;99635.44;;;8.05;65.98
21728;BME280;11026;50.560;17.852;2023-05-10T02:15:55;99632.84;;;8.03;65.88
21728;BME280;11026;50.560;17.852;2023-05-10T02:18:25;99632.84;;;8.03;65.90
21728;BME280;11026;50.560;17.852;2023-05-10T02:20:56;99622.97;;;8.10;65.71
21728;BME280;11026;50.560;17.852;2023-05-10T02:23:25;99630.06;;;8.08;65.50
21728;BME280;11026;50.560;17.852;2023-05-10T02:25:54;99623.03;;;8.08;65.57
21728;BME280;11026;50.560;17.852;2023-05-10T02:28:24;99621.16;;;8.12;65.36
21728;BME280;11026;50.560;17.852;2023-05-10T02:30:54;99618.66;;;8.07;65.46
21728;BME280;11026;50.560;17.852;2023-05-10T02:33:24;99619.56;;;8.06;65.54
21728;BME280;11026;50.560;17.852;2023-05-10T02:35:52;99623.31;;;7.99;65.77
21728;BME280;11026;50.560;17.852;2023-05-10T02:38:21;99622.50;;;7.97;65.74
21728;BME280;11026;50.560;17.852;2023-05-10T02:40:52;99625.94;;;7.99;65.59
21728;BME280;11026;50.560;17.852;2023-05-10T02:43:22;99622.50;;;7.97;65.66
21728;BME280;11026;50.560;17.852;2023-05-10T02:45:51;99628.63;;;7.98;65.65
21728;BME280;11026;50.560;17.852;2023-05-10T02:48:18;99623.47;;;7.95;66.04
21728;BME280;11026;50.560;17.852;2023-05-10T02:50:47;99625.28;;;7.93;66.01
21728;BME280;11026;50.560;17.852;2023-05-10T02:53:23;99615.72;;;7.90;66.02
21728;BME280;11026;50.560;17.852;2023-05-10T02:55:59;99621.06;;;7.87;66.15
21728;BME280;11026;50.560;17.852;2023-05-10T02:58:27;99619.34;;;7.86;66.36
21728;BME280;11026;50.560;17.852;2023-05-10T03:00:55;99629.97;;;7.83;66.26
21728;BME280;11026;50.560;17.852;2023-05-10T03:03:22;99618.66;;;7.79;66.48
21728;BME280;11026;50.560;17.852;2023-05-10T03:05:50;99622.13;;;7.81;66.60
21728;BME280;11026;50.560;17.852;2023-05-10T03:08:17;99627.25;;;7.86;66.59
21728;BME280;11026;50.560;17.852;2023-05-10T03:10:55;99619.44;;;7.83;66.35
21728;BME280;11026;50.560;17.852;2023-05-10T03:13:32;99618.81;;;7.75;66.77
21728;BME280;11026;50.560;17.852;2023-05-10T03:16:12;99622.16;;;7.80;66.56
21728;BME280;11026;50.560;17.852;2023-05-10T03:21:18;99619.44;;;7.83;66.36
21728;BME280;11026;50.560;17.852;2023-05-10T03:23:51;99615.25;;;7.76;66.36
21728;BME280;11026;50.560;17.852;2023-05-10T03:26:24;99617.81;;;7.79;66.75
21728;BME280;11026;50.560;17.852;2023-05-10T03:28:54;99609.81;;;7.82;66.53
21728;BME280;11026;50.560;17.852;2023-05-10T03:31:21;99614.38;;;7.77;66.78
21728;BME280;11026;50.560;17.852;2023-05-10T03:33:51;99617.63;;;7.85;66.40
21728;BME280;11026;50.560;17.852;2023-05-10T03:36:20;99618.56;;;7.84;66.48
21728;BME280;11026;50.560;17.852;2023-05-10T03:38:48;99617.72;;;7.82;66.78
21728;BME280;11026;50.560;17.852;2023-05-10T03:41:16;99610.34;;;7.93;66.34
21728;BME280;11026;50.560;17.852;2023-05-10T03:43:45;99605.38;;;7.84;66.52
21728;BME280;11026;50.560;17.852;2023-05-10T03:46:13;99604.22;;;7.93;66.33
21728;BME280;11026;50.560;17.852;2023-05-10T03:48:40;99604.00;;;7.99;66.45
21728;BME280;11026;50.560;17.852;2023-05-10T03:51:08;99608.34;;;8.00;66.10
21728;BME280;11026;50.560;17.852;2023-05-10T03:53:36;99607.31;;;8.05;66.09
21728;BME280;11026;50.560;17.852;2023-05-10T03:56:04;99605.59;;;8.04;65.75
21728;BME280;11026;50.560;17.852;2023-05-10T03:58:31;99602.84;;;8.07;65.98
21728;BME280;11026;50.560;17.852;2023-05-10T04:01:05;99609.78;;;8.10;65.89
21728;BME280;11026;50.560;17.852;2023-05-10T04:03:32;99602.50;;;8.18;66.20
21728;BME280;11026;50.560;17.852;2023-05-10T04:06:00;99604.28;;;8.18;65.74
21728;BME280;11026;50.560;17.852;2023-05-10T04:08:34;99598.81;;;8.24;65.52
21728;BME280;11026;50.560;17.852;2023-05-10T04:11:09;99606.56;;;8.28;65.67
21728;BME280;11026;50.560;17.852;2023-05-10T04:13:36;99605.72;;;8.28;65.22
21728;BME280;11026;50.560;17.852;2023-05-10T04:16:04;99603.66;;;8.36;65.32
21728;BME280;11026;50.560;17.852;2023-05-10T04:18:32;99603.53;;;8.41;64.93
21728;BME280;11026;50.560;17.852;2023-05-10T04:21:00;99610.47;;;8.43;64.65
21728;BME280;11026;50.560;17.852;2023-05-10T04:23:28;99612.09;;;8.47;65.11
21728;BME280;11026;50.560;17.852;2023-05-10T04:26:02;99601.28;;;8.55;64.88
21728;BME280;11026;50.560;17.852;2023-05-10T04:28:29;99602.75;;;8.64;64.40
21728;BME280;11026;50.560;17.852;2023-05-10T04:31:07;99600.59;;;8.75;64.12
21728;BME280;11026;50.560;17.852;2023-05-10T04:33:35;99610.28;;;8.74;63.79
21728;BME280;11026;50.560;17.852;2023-05-10T04:36:02;99605.66;;;8.81;63.89
21728;BME280;11026;50.560;17.852;2023-05-10T04:38:30;99601.19;;;8.83;63.90
21728;BME280;11026;50.560;17.852;2023-05-10T04:41:06;99608.66;;;8.95;63.49
21728;BME280;11026;50.560;17.852;2023-05-10T04:43:33;99605.59;;;9.07;63.39
21728;BME280;11026;50.560;17.852;2023-05-10T04:46:02;99602.81;;;9.10;63.26
21728;BME280;11026;50.560;17.852;2023-05-10T04:48:29;99599.78;;;9.21;62.76
21728;BME280;11026;50.560;17.852;2023-05-10T04:50:57;99603.16;;;9.25;62.80
21728;BME280;11026;50.560;17.852;2023-05-10T04:53:24;99603.53;;;9.39;62.27
21728;BME280;11026;50.560;17.852;2023-05-10T04:55:52;99603.16;;;9.48;61.91
21728;BME280;11026;50.560;17.852;2023-05-10T04:58:19;99596.63;;;9.58;61.37
21728;BME280;11026;50.560;17.852;2023-05-10T05:00:48;99607.75;;;9.67;61.75
21728;BME280;11026;50.560;17.852;2023-05-10T05:03:15;99598.50;;;9.77;61.23
21728;BME280;11026;50.560;17.852;2023-05-10T05:05:43;99605.16;;;9.87;60.75
21728;BME280;11026;50.560;17.852;2023-05-10T05:08:11;99604.00;;;9.94;60.87
21728;BME280;11026;50.560;17.852;2023-05-10T05:10:41;99609.69;;;10.05;60.14
21728;BME280;11026;50.560;17.852;2023-05-10T05:13:09;99613.28;;;10.04;60.03
21728;BME280;11026;50.560;17.852;2023-05-10T05:15:36;99598.66;;;10.18;59.83
21728;BME280;11026;50.560;17.852;2023-05-10T05:18:04;99601.47;;;10.35;59.64
21728;BME280;11026;50.560;17.852;2023-05-10T05:20:34;99594.47;;;10.34;58.88
21728;BME280;11026;50.560;17.852;2023-05-10T05:23:02;99601.69;;;10.51;58.67
21728;BME280;11026;50.560;17.852;2023-05-10T05:25:30;99597.97;;;10.55;58.47
21728;BME280;11026;50.560;17.852;2023-05-10T05:27:58;99598.09;;;10.72;57.94
21728;BME280;11026;50.560;17.852;2023-05-10T05:30:26;99594.91;;;10.84;57.29
21728;BME280;11026;50.560;17.852;2023-05-10T05:32:53;99600.81;;;10.91;57.64
21728;BME280;11026;50.560;17.852;2023-05-10T05:35:21;99602.19;;;11.00;57.21
21728;BME280;11026;50.560;17.852;2023-05-10T05:37:48;99604.09;;;11.17;56.92
21728;BME280;11026;50.560;17.852;2023-05-10T05:40:16;99600.16;;;11.25;56.96
21728;BME280;11026;50.560;17.852;2023-05-10T05:42:45;99602.75;;;11.46;56.73
21728;BME280;11026;50.560;17.852;2023-05-10T05:45:15;99593.66;;;11.51;56.02
21728;BME280;11026;50.560;17.852;2023-05-10T05:47:42;99603.88;;;11.59;55.75
21728;BME280;11026;50.560;17.852;2023-05-10T05:50:10;99600.03;;;11.66;55.79
21728;BME280;11026;50.560;17.852;2023-05-10T05:52:37;99600.50;;;11.74;55.95
21728;BME280;11026;50.560;17.852;2023-05-10T05:55:05;99600.66;;;11.71;55.45
21728;BME280;11026;50.560;17.852;2023-05-10T05:57:32;99599.66;;;11.74;55.30
21728;BME280;11026;50.560;17.852;2023-05-10T06:00:01;99602.59;;;11.87;54.80
21728;BME280;11026;50.560;17.852;2023-05-10T06:02:29;99594.00;;;11.81;54.94
21728;BME280;11026;50.560;17.852;2023-05-10T06:04:58;99595.00;;;11.98;55.39
21728;BME280;11026;50.560;17.852;2023-05-10T06:07:27;99584.22;;;12.20;55.73
21728;BME280;11026;50.560;17.852;2023-05-10T06:09:55;99592.31;;;12.34;54.31
21728;BME280;11026;50.560;17.852;2023-05-10T06:12:22;99587.00;;;12.34;54.56
21728;BME280;11026;50.560;17.852;2023-05-10T06:14:49;99578.59;;;12.43;54.46
21728;BME280;11026;50.560;17.852;2023-05-10T06:17:17;99589.75;;;12.67;53.92
21728;BME280;11026;50.560;17.852;2023-05-10T06:19:44;99592.88;;;12.75;53.12
21728;BME280;11026;50.560;17.852;2023-05-10T06:22:12;99580.13;;;12.82;53.13
21728;BME280;11026;50.560;17.852;2023-05-10T06:24:40;99590.88;;;12.96;53.02
21728;BME280;11026;50.560;17.852;2023-05-10T06:27:08;99594.84;;;13.05;53.23
21728;BME280;11026;50.560;17.852;2023-05-10T06:29:35;99590.06;;;13.12;53.70
21728;BME280;11026;50.560;17.852;2023-05-10T06:32:03;99596.84;;;13.17;52.02
21728;BME280;11026;50.560;17.852;2023-05-10T06:34:30;99593.16;;;13.20;52.12
21728;BME280;11026;50.560;17.852;2023-05-10T06:36:58;99599.72;;;13.30;52.35
21728;BME280;11026;50.560;17.852;2023-05-10T06:39:26;99595.63;;;13.40;51.91
21728;BME280;11026;50.560;17.852;2023-05-10T06:41:53;99591.44;;;13.52;52.48
21728;BME280;11026;50.560;17.852;2023-05-10T06:44:21;99589.81;;;13.65;52.89
21728;BME280;11026;50.560;17.852;2023-05-10T06:46:48;99592.72;;;13.61;51.54
21728;BME280;11026;50.560;17.852;2023-05-10T06:49:16;99582.09;;;13.61;52.33
21728;BME280;11026;50.560;17.852;2023-05-10T06:51:45;99586.31;;;13.81;52.33
21728;BME280;11026;50.560;17.852;2023-05-10T06:54:12;99582.16;;;14.07;52.11
21728;BME280;11026;50.560;17.852;2023-05-10T06:56:39;99591.94;;;14.22;51.78
21728;BME280;11026;50.560;17.852;2023-05-10T06:59:07;99592.44;;;14.13;51.80
21728;BME280;11026;50.560;17.852;2023-05-10T07:01:34;99583.75;;;14.25;51.42
21728;BME280;11026;50.560;17.852;2023-05-10T07:04:02;99594.19;;;14.44;51.39
21728;BME280;11026;50.560;17.852;2023-05-10T07:06:30;99598.63;;;14.59;51.17
21728;BME280;11026;50.560;17.852;2023-05-10T07:09:01;99590.94;;;14.55;52.14
21728;BME280;11026;50.560;17.852;2023-05-10T07:11:35;99581.06;;;14.71;50.71
21728;BME280;11026;50.560;17.852;2023-05-10T07:14:03;99578.47;;;14.55;49.90
21728;BME280;11026;50.560;17.852;2023-05-10T07:16:30;99582.38;;;14.49;50.81
21728;BME280;11026;50.560;17.852;2023-05-10T07:19:04;99586.34;;;14.57;50.19
21728;BME280;11026;50.560;17.852;2023-05-10T07:21:32;99575.81;;;14.55;50.39
21728;BME280;11026;50.560;17.852;2023-05-10T07:23:59;99587.41;;;14.68;49.88
21728;BME280;11026;50.560;17.852;2023-05-10T07:26:33;99591.16;;;14.66;50.03
21728;BME280;11026;50.560;17.852;2023-05-10T07:29:01;99593.84;;;14.94;49.75
21728;BME280;11026;50.560;17.852;2023-05-10T07:31:30;99593.28;;;15.04;50.78
21728;BME280;11026;50.560;17.852;2023-05-10T07:34:03;99583.75;;;15.28;50.66
21728;BME280;11026;50.560;17.852;2023-05-10T07:36:31;99582.81;;;15.15;49.27
21728;BME280;11026;50.560;17.852;2023-05-10T07:39:00;99589.88;;;15.30;50.54
21728;BME280;11026;50.560;17.852;2023-05-10T07:41:27;99584.16;;;15.08;50.05
21728;BME280;11026;50.560;17.852;2023-05-10T07:43:55;99580.63;;;15.36;50.41
21728;BME280;11026;50.560;17.852;2023-05-10T07:46:22;99576.41;;;15.60;49.52
21728;BME280;11026;50.560;17.852;2023-05-10T07:48:52;99570.63;;;15.68;49.34
21728;BME280;11026;50.560;17.852;2023-05-10T07:51:19;99576.97;;;15.51;49.13
21728;BME280;11026;50.560;17.852;2023-05-10T07:53:48;99577.03;;;15.37;49.58
21728;BME280;11026;50.560;17.852;2023-05-10T07:56:21;99572.25;;;15.56;50.20
21728;BME280;11026;50.560;17.852;2023-05-10T07:58:49;99576.31;;;15.76;49.94
21728;BME280;11026;50.560;17.852;2023-05-10T08:01:16;99569.78;;;15.94;49.44
21728;BME280;11026;50.560;17.852;2023-05-10T08:03:44;99577.69;;;15.96;49.57
21728;BME280;11026;50.560;17.852;2023-05-10T08:06:12;99576.63;;;15.98;50.61
21728;BME280;11026;50.560;17.852;2023-05-10T08:08:39;99565.66;;;15.76;50.70
21728;BME280;11026;50.560;17.852;2023-05-10T08:11:07;99578.03;;;15.77;50.61
21728;BME280;11026;50.560;17.852;2023-05-10T08:13:34;99578.19;;;15.60;51.02
21728;BME280;11026;50.560;17.852;2023-05-10T08:16:02;99568.16;;;15.65;50.94
21728;BME280;11026;50.560;17.852;2023-05-10T08:18:29;99566.06;;;15.97;51.01
21728;BME280;11026;50.560;17.852;2023-05-10T08:20:58;99567.81;;;16.11;49.90
21728;BME280;11026;50.560;17.852;2023-05-10T08:23:26;99560.44;;;16.14;50.12
21728;BME280;11026;50.560;17.852;2023-05-10T08:25:53;99566.03;;;16.24;49.44
21728;BME280;11026;50.560;17.852;2023-05-10T08:28:24;99560.34;;;16.56;50.97
21728;BME280;11026;50.560;17.852;2023-05-10T08:30:54;99554.38;;;16.65;49.15
21728;BME280;11026;50.560;17.852;2023-05-10T08:33:23;99557.56;;;16.70;49.48
21728;BME280;11026;50.560;17.852;2023-05-10T08:35:53;99553.88;;;16.85;50.21
21728;BME280;11026;50.560;17.852;2023-05-10T08:38:22;99556.34;;;16.88;48.87
21728;BME280;11026;50.560;17.852;2023-05-10T08:40:54;99556.66;;;16.96;49.31
21728;BME280;11026;50.560;17.852;2023-05-10T08:43:31;99577.50;;;16.91;48.64
21728;BME280;11026;50.560;17.852;2023-05-10T08:46:04;99564.44;;;16.74;49.55
21728;BME280;11026;50.560;17.852;2023-05-10T08:48:34;99574.28;;;16.74;49.33
21728;BME280;11026;50.560;17.852;2023-05-10T08:51:02;99570.19;;;16.68;50.15
21728;BME280;11026;50.560;17.852;2023-05-10T08:53:31;99570.34;;;16.39;49.47
21728;BME280;11026;50.560;17.852;2023-05-10T08:56:01;99558.31;;;16.59;50.52
21728;BME280;11026;50.560;17.852;2023-05-10T08:58:29;99555.81;;;16.83;50.73
21728;BME280;11026;50.560;17.852;2023-05-10T09:00:57;99562.50;;;17.14;48.94
21728;BME280;11026;50.560;17.852;2023-05-10T09:03:38;99575.34;;;17.35;51.17
21728;BME280;11026;50.560;17.852;2023-05-10T09:06:06;99568.25;;;17.47;47.53
21728;BME280;11026;50.560;17.852;2023-05-10T09:08:34;99577.50;;;16.91;48.91
21728;BME280;11026;50.560;17.852;2023-05-10T09:11:03;99586.63;;;16.62;49.26
21728;BME280;11026;50.560;17.852;2023-05-10T09:13:31;99573.88;;;16.80;50.14
21728;BME280;11026;50.560;17.852;2023-05-10T09:15:59;99567.47;;;16.95;49.30
21728;BME280;11026;50.560;17.852;2023-05-10T09:18:46;99579.09;;;16.94;49.07
21728;BME280;11026;50.560;17.852;2023-05-10T09:21:13;99577.28;;;16.94;49.71
21728;BME280;11026;50.560;17.852;2023-05-10T09:23:47;99578.47;;;17.16;50.25
21728;BME280;11026;50.560;17.852;2023-05-10T09:26:22;99568.63;;;17.04;49.83
21728;BME280;11026;50.560;17.852;2023-05-10T09:28:52;99558.44;;;17.34;49.67
21728;BME280;11026;50.560;17.852;2023-05-10T09:31:19;99549.56;;;17.83;49.05
21728;BME280;11026;50.560;17.852;2023-05-10T09:33:48;99554.41;;;18.02;47.78
21728;BME280;11026;50.560;17.852;2023-05-10T09:36:16;99555.88;;;18.06;47.31
21728;BME280;11026;50.560;17.852;2023-05-10T09:38:52;99559.75;;;18.26;48.20
21728;BME280;11026;50.560;17.852;2023-05-10T09:41:21;99556.59;;;18.32;47.94
21728;BME280;11026;50.560;17.852;2023-05-10T09:43:49;99568.97;;;18.81;47.12
21728;BME280;11026;50.560;17.852;2023-05-10T09:46:25;99572.13;;;18.51;46.46
21728;BME280;11026;50.560;17.852;2023-05-10T09:48:53;99564.94;;;18.16;45.63
21728;BME280;11026;50.560;17.852;2023-05-10T09:51:22;99557.72;;;18.06;46.41
21728;BME280;11026;50.560;17.852;2023-05-10T09:54:12;99568.75;;;17.64;47.48
21728;BME280;11026;50.560;17.852;2023-05-10T09:56:40;99545.44;;;17.54;47.45
21728;BME280;11026;50.560;17.852;2023-05-10T09:59:18;99557.31;;;17.62;49.96
21728;BME280;11026;50.560;17.852;2023-05-10T10:01:51;99557.97;;;17.53;48.39
21728;BME280;11026;50.560;17.852;2023-05-10T10:04:20;99558.50;;;17.45;48.30
21728;BME280;11026;50.560;17.852;2023-05-10T10:07:04;99549.59;;;17.70;47.17
21728;BME280;11026;50.560;17.852;2023-05-10T10:09:34;99546.66;;;17.74;47.74
21728;BME280;11026;50.560;17.852;2023-05-10T10:12:03;99535.09;;;18.10;47.22
21728;BME280;11026;50.560;17.852;2023-05-10T10:14:34;99545.34;;;18.16;47.52
21728;BME280;11026;50.560;17.852;2023-05-10T10:17:01;99545.13;;;18.19;46.34
21728;BME280;11026;50.560;17.852;2023-05-10T10:19:33;99541.31;;;17.86;45.37
21728;BME280;11026;50.560;17.852;2023-05-10T10:22:04;99543.75;;;17.53;46.48
21728;BME280;11026;50.560;17.852;2023-05-10T10:24:39;99535.16;;;17.97;47.06
21728;BME280;11026;50.560;17.852;2023-05-10T10:27:23;99543.78;;;18.25;46.46
21728;BME280;11026;50.560;17.852;2023-05-10T10:30:00;99541.63;;;18.30;45.54
21728;BME280;11026;50.560;17.852;2023-05-10T10:35:19;99537.06;;;18.89;45.40
21728;BME280;11026;50.560;17.852;2023-05-10T10:37:47;99541.56;;;19.00;43.84
21728;BME280;11026;50.560;17.852;2023-05-10T10:40:28;99535.59;;;19.19;44.73
21728;BME280;11026;50.560;17.852;2023-05-10T10:43:23;99535.69;;;19.51;44.39
21728;BME280;11026;50.560;17.852;2023-05-10T10:49:09;99527.69;;;18.60;44.48
21728;BME280;11026;50.560;17.852;2023-05-10T10:51:40;99534.16;;;18.57;45.28
21728;BME280;11026;50.560;17.852;2023-05-10T10:54:11;99526.47;;;18.53;45.87
21728;BME280;11026;50.560;17.852;2023-05-10T10:56:39;99523.22;;;18.25;45.54
21728;BME280;11026;50.560;17.852;2023-05-10T10:59:07;99528.72;;;18.00;45.35
21728;BME280;11026;50.560;17.852;2023-05-10T11:01:35;99517.94;;;18.12;45.85
21728;BME280;11026;50.560;17.852;2023-05-10T11:06:32;99524.72;;;18.29;44.86
21728;BME280;11026;50.560;17.852;2023-05-10T11:09:10;99518.41;;;18.41;43.82
21728;BME280;11026;50.560;17.852;2023-05-10T11:11:54;99530.59;;;18.57;44.10
21728;BME280;11026;50.560;17.852;2023-05-10T11:14:26;99520.84;;;18.33;45.00
21728;BME280;11026;50.560;17.852;2023-05-10T11:16:56;99534.00;;;18.48;45.50
21728;BME280;11026;50.560;17.852;2023-05-10T11:19:30;99520.88;;;18.56;44.24
21728;BME280;11026;50.560;17.852;2023-05-10T11:24:31;99527.28;;;18.88;44.53
21728;BME280;11026;50.560;17.852;2023-05-10T11:27:00;99513.91;;;19.00;43.85
21728;BME280;11026;50.560;17.852;2023-05-10T11:29:29;99523.41;;;19.49;43.11
21728;BME280;11026;50.560;17.852;2023-05-10T11:31:59;99515.19;;;19.84;43.25
21728;BME280;11026;50.560;17.852;2023-05-10T11:34:29;99520.28;;;19.76;41.90
21728;BME280;11026;50.560;17.852;2023-05-10T11:36:57;99527.19;;;19.35;42.26
21728;BME280;11026;50.560;17.852;2023-05-10T11:39:30;99522.19;;;18.97;43.44
21728;BME280;11026;50.560;17.852;2023-05-10T11:41:58;99519.53;;;18.97;43.47
21728;BME280;11026;50.560;17.852;2023-05-10T11:44:32;99514.06;;;19.86;43.24
21728;BME280;11026;50.560;17.852;2023-05-10T11:47:06;99507.44;;;20.23;41.51
21728;BME280;11026;50.560;17.852;2023-05-10T11:49:34;99515.00;;;20.71;40.09
21728;BME280;11026;50.560;17.852;2023-05-10T11:52:08;99492.31;;;20.22;41.33
21728;BME280;11026;50.560;17.852;2023-05-10T11:54:36;99503.53;;;20.48;41.87
21728;BME280;11026;50.560;17.852;2023-05-10T11:57:03;99495.44;;;20.59;40.29
21728;BME280;11026;50.560;17.852;2023-05-10T11:59:31;99503.75;;;20.03;41.10
21728;BME280;11026;50.560;17.852;2023-05-10T12:01:58;99514.44;;;19.82;40.98
21728;BME280;11026;50.560;17.852;2023-05-10T12:04:28;99497.75;;;19.67;42.29
21728;BME280;11026;50.560;17.852;2023-05-10T12:06:56;99515.84;;;19.42;40.69
21728;BME280;11026;50.560;17.852;2023-05-10T12:09:25;99511.91;;;19.58;41.51
21728;BME280;11026;50.560;17.852;2023-05-10T12:12:09;99519.38;;;19.98;41.31
21728;BME280;11026;50.560;17.852;2023-05-10T12:14:38;99513.97;;;20.09;42.19
21728;BME280;11026;50.560;17.852;2023-05-10T12:17:05;99509.06;;;20.98;41.04
21728;BME280;11026;50.560;17.852;2023-05-10T12:19:38;99514.53;;;21.48;38.79
21728;BME280;11026;50.560;17.852;2023-05-10T12:22:05;99502.56;;;20.91;38.49
21728;BME280;11026;50.560;17.852;2023-05-10T12:24:36;99497.56;;;21.57;40.04
21728;BME280;11026;50.560;17.852;2023-05-10T12:27:05;99499.91;;;22.10;37.66
21728;BME280;11026;50.560;17.852;2023-05-10T12:29:51;99492.06;;;21.97;38.29
21728;BME280;11026;50.560;17.852;2023-05-10T12:32:37;99505.91;;;21.54;38.39
21728;BME280;11026;50.560;17.852;2023-05-10T12:35:05;99505.47;;;21.39;37.75
21728;BME280;11026;50.560;17.852;2023-05-10T12:37:33;99488.13;;;21.92;38.10
21728;BME280;11026;50.560;17.852;2023-05-10T12:40:06;99487.97;;;22.03;37.43
21728;BME280;11026;50.560;17.852;2023-05-10T12:42:36;99483.72;;;21.91;37.17
21728;BME280;11026;50.560;17.852;2023-05-10T12:45:04;99488.56;;;22.45;36.98
21728;BME280;11026;50.560;17.852;2023-05-10T12:47:32;99482.81;;;21.51;36.59
21728;BME280;11026;50.560;17.852;2023-05-10T12:50:01;99479.72;;;21.56;37.72
21728;BME280;11026;50.560;17.852;2023-05-10T12:52:29;99479.47;;;21.28;38.70
21728;BME280;11026;50.560;17.852;2023-05-10T12:54:59;99480.59;;;22.05;39.26
21728;BME280;11026;50.560;17.852;2023-05-10T12:57:26;99467.31;;;22.13;39.14
21728;BME280;11026;50.560;17.852;2023-05-10T12:59:54;99478.47;;;22.47;38.01
21728;BME280;11026;50.560;17.852;2023-05-10T13:02:22;99483.84;;;21.70;36.38
21728;BME280;11026;50.560;17.852;2023-05-10T13:04:50;99472.41;;;22.16;36.76
21728;BME280;11026;50.560;17.852;2023-05-10T13:07:17;99461.78;;;22.91;35.53
21728;BME280;11026;50.560;17.852;2023-05-10T13:09:44;99470.94;;;23.35;34.62
21728;BME280;11026;50.560;17.852;2023-05-10T13:12:12;99477.38;;;22.97;35.31
21728;BME280;11026;50.560;17.852;2023-05-10T13:14:39;99466.03;;;22.93;36.68
21728;BME280;11026;50.560;17.852;2023-05-10T13:17:07;99458.66;;;23.23;36.18
21728;BME280;11026;50.560;17.852;2023-05-10T13:19:34;99454.78;;;23.53;36.53
21728;BME280;11026;50.560;17.852;2023-05-10T13:22:02;99464.69;;;22.60;35.16
21728;BME280;11026;50.560;17.852;2023-05-10T13:24:29;99448.50;;;23.07;37.34
21728;BME280;11026;50.560;17.852;2023-05-10T13:26:59;99445.63;;;24.61;35.60
21728;BME280;11026;50.560;17.852;2023-05-10T13:29:26;99446.16;;;24.91;34.08